sensor_id;sensor_type;location;lat;lon;timestamp;temperature;humidity
2130;DHT22;1071;52.544;13.374;2023-04-28T00:02:05;10.30;82.90
2130;DHT22;1071;52.544;13.374;2023-04-28T00:04:32;10.30;82.90
2130;DHT22;1071;52.544;13.374;2023-04-28T00:06:59;10.40;82.90
2130;DHT22;1071;52.544;13.374;2023-04-28T00:09:28;10.30;82.80
2130;DHT22;1071;52.544;13.374;2023-04-28T00:11:58;10.30;82.80
2130;DHT22;1071;52.544;13.374;2023-04-28T00:14:27;10.30;82.80
2130;DHT22;1071;52.544;13.374;2023-04-28T00:16:54;10.30;82.80
2130;DHT22;1071;52.544;13.374;2023-04-28T00:19:23;10.20;83.00
2130;DHT22;1071;52.544;13.374;2023-04-28T00:21:50;10.20;82.90
2130;DHT22;1071;52.544;13.374;2023-04-28T00:24:17;10.20;82.80
2130;DHT22;1071;52.544;13.374;2023-04-28T00:26:46;10.20;82.70
2130;DHT22;1071;52.544;13.374;2023-04-28T00:29:13;10.20;82.90
2130;DHT22;1071;52.544;13.374;2023-04-28T00:31:43;10.20;82.80
2130;DHT22;1071;52.544;13.374;2023-04-28T00:34:10;10.20;82.50
2130;DHT22;1071;52.544;13.374;2023-04-28T00:36:39;10.10;82.60
2130;DHT22;1071;52.544;13.374;2023-04-28T00:39:06;10.10;82.50
2130;DHT22;1071;52.544;13.374;2023-04-28T00:41:34;10.10;82.30
2130;DHT22;1071;52.544;13.374;2023-04-28T00:44:03;10.10;82.50
2130;DHT22;1071;52.544;13.374;2023-04-28T00:46:32;10.00;82.10
2130;DHT22;1071;52.544;13.374;2023-04-28T00:49:00;10.00;82.10
2130;DHT22;1071;52.544;13.374;2023-04-28T00:51:27;10.00;82.10
2130;DHT22;1071;52.544;13.374;2023-04-28T00:53:55;10.00;82.10
2130;DHT22;1071;52.544;13.374;2023-04-28T00:56:22;10.00;82.20
2130;DHT22;1071;52.544;13.374;2023-04-28T00:58:52;10.00;82.30
2130;DHT22;1071;52.544;13.374;2023-04-28T01:01:26;10.00;82.20
2130;DHT22;1071;52.544;13.374;2023-04-28T01:03:56;10.00;81.80
2130;DHT22;1071;52.544;13.374;2023-04-28T01:06:23;10.00;81.90
2130;DHT22;1071;52.544;13.374;2023-04-28T01:08:50;9.90;82.70
2130;DHT22;1071;52.544;13.374;2023-04-28T01:11:17;9.90;82.60
2130;DHT22;1071;52.544;13.374;2023-04-28T01:13:46;10.00;81.30
2130;DHT22;1071;52.544;13.374;2023-04-28T01:16:13;9.90;82.70
2130;DHT22;1071;52.544;13.374;2023-04-28T01:18:46;9.90;82.60
2130;DHT22;1071;52.544;13.374;2023-04-28T01:21:29;10.00;81.60
2130;DHT22;1071;52.544;13.374;2023-04-28T01:24:05;9.90;82.80
2130;DHT22;1071;52.544;13.374;2023-04-28T01:26:32;9.90;82.80
2130;DHT22;1071;52.544;13.374;2023-04-28T01:29:03;9.90;82.90
2130;DHT22;1071;52.544;13.374;2023-04-28T01:31:30;9.90;82.70
2130;DHT22;1071;52.544;13.374;2023-04-28T01:33:59;9.90;82.70
2130;DHT22;1071;52.544;13.374;2023-04-28T01:36:29;9.90;82.60
2130;DHT22;1071;52.544;13.374;2023-04-28T01:39:00;9.90;82.40
2130;DHT22;1071;52.544;13.374;2023-04-28T01:41:28;9.90;82.60
2130;DHT22;1071;52.544;13.374;2023-04-28T01:43:55;9.90;82.70
2130;DHT22;1071;52.544;13.374;2023-04-28T01:46:22;9.90;82.70
2130;DHT22;1071;52.544;13.374;2023-04-28T01:48:49;9.90;82.80
2130;DHT22;1071;52.544;13.374;2023-04-28T01:51:16;9.90;83.80
2130;DHT22;1071;52.544;13.374;2023-04-28T01:53:44;9.80;82.80
2130;DHT22;1071;52.544;13.374;2023-04-28T01:56:11;9.80;82.70
2130;DHT22;1071;52.544;13.374;2023-04-28T01:58:39;9.80;83.20
2130;DHT22;1071;52.544;13.374;2023-04-28T02:01:06;9.80;83.50
2130;DHT22;1071;52.544;13.374;2023-04-28T02:03:35;9.80;83.60
2130;DHT22;1071;52.544;13.374;2023-04-28T02:06:02;9.80;83.50
2130;DHT22;1071;52.544;13.374;2023-04-28T02:08:29;9.70;83.40
2130;DHT22;1071;52.544;13.374;2023-04-28T02:10:57;9.70;83.60
2130;DHT22;1071;52.544;13.374;2023-04-28T02:13:26;9.70;84.00
2130;DHT22;1071;52.544;13.374;2023-04-28T02:15:54;9.70;84.10
2130;DHT22;1071;52.544;13.374;2023-04-28T02:18:21;9.70;84.00
2130;DHT22;1071;52.544;13.374;2023-04-28T02:20:49;9.70;84.10
2130;DHT22;1071;52.544;13.374;2023-04-28T02:23:16;9.70;84.70
2130;DHT22;1071;52.544;13.374;2023-04-28T02:25:43;9.60;84.80
2130;DHT22;1071;52.544;13.374;2023-04-28T02:28:10;9.60;85.00
2130;DHT22;1071;52.544;13.374;2023-04-28T02:30:38;9.60;85.00
2130;DHT22;1071;52.544;13.374;2023-04-28T02:33:09;9.60;85.40
2130;DHT22;1071;52.544;13.374;2023-04-28T02:35:39;9.60;85.60
2130;DHT22;1071;52.544;13.374;2023-04-28T02:38:07;9.60;85.60
2130;DHT22;1071;52.544;13.374;2023-04-28T02:40:35;9.60;85.60
2130;DHT22;1071;52.544;13.374;2023-04-28T02:43:04;9.60;85.80
2130;DHT22;1071;52.544;13.374;2023-04-28T02:45:33;9.50;86.20
2130;DHT22;1071;52.544;13.374;2023-04-28T02:48:00;9.50;86.20
2130;DHT22;1071;52.544;13.374;2023-04-28T02:50:30;9.50;86.60
2130;DHT22;1071;52.544;13.374;2023-04-28T02:52:57;9.50;86.60
2130;DHT22;1071;52.544;13.374;2023-04-28T02:55:24;9.50;86.40
2130;DHT22;1071;52.544;13.374;2023-04-28T02:57:51;9.50;86.60
2130;DHT22;1071;52.544;13.374;2023-04-28T03:00:19;9.50;87.00
2130;DHT22;1071;52.544;13.374;2023-04-28T03:02:46;9.50;87.30
2130;DHT22;1071;52.544;13.374;2023-04-28T03:05:13;9.50;87.40
2130;DHT22;1071;52.544;13.374;2023-04-28T03:07:41;9.50;87.60
2130;DHT22;1071;52.544;13.374;2023-04-28T03:10:09;9.40;87.60
2130;DHT22;1071;52.544;13.374;2023-04-28T03:12:38;9.40;87.60
2130;DHT22;1071;52.544;13.374;2023-04-28T03:15:06;9.40;87.80
2130;DHT22;1071;52.544;13.374;2023-04-28T03:17:34;9.40;87.90
2130;DHT22;1071;52.544;13.374;2023-04-28T03:20:07;9.40;88.10
2130;DHT22;1071;52.544;13.374;2023-04-28T03:22:47;9.40;88.40
2130;DHT22;1071;52.544;13.374;2023-04-28T03:25:14;9.40;88.40
2130;DHT22;1071;52.544;13.374;2023-04-28T03:27:41;9.40;88.00
2130;DHT22;1071;52.544;13.374;2023-04-28T03:30:09;9.40;87.80
2130;DHT22;1071;52.544;13.374;2023-04-28T03:32:38;9.40;87.80
2130;DHT22;1071;52.544;13.374;2023-04-28T03:35:05;9.40;88.00
2130;DHT22;1071;52.544;13.374;2023-04-28T03:37:33;9.40;88.00
2130;DHT22;1071;52.544;13.374;2023-04-28T03:40:13;9.40;87.90
2130;DHT22;1071;52.544;13.374;2023-04-28T03:42:40;9.40;88.00
2130;DHT22;1071;52.544;13.374;2023-04-28T03:45:07;9.40;87.50
2130;DHT22;1071;52.544;13.374;2023-04-28T03:47:35;9.40;87.50
2130;DHT22;1071;52.544;13.374;2023-04-28T03:50:03;9.40;87.50
2130;DHT22;1071;52.544;13.374;2023-04-28T03:52:35;9.40;87.60
2130;DHT22;1071;52.544;13.374;2023-04-28T03:55:02;9.40;87.80
2130;DHT22;1071;52.544;13.374;2023-04-28T03:57:36;9.40;87.40
2130;DHT22;1071;52.544;13.374;2023-04-28T04:00:07;9.40;87.50
2130;DHT22;1071;52.544;13.374;2023-04-28T04:02:34;9.40;87.60
2130;DHT22;1071;52.544;13.374;2023-04-28T04:05:01;9.40;87.00
2130;DHT22;1071;52.544;13.374;2023-04-28T04:07:28;9.40;86.90
2130;DHT22;1071;52.544;13.374;2023-04-28T04:09:55;9.40;86.90
2130;DHT22;1071;52.544;13.374;2023-04-28T04:12:22;9.40;86.90
2130;DHT22;1071;52.544;13.374;2023-04-28T04:14:51;9.40;87.20
2130;DHT22;1071;52.544;13.374;2023-04-28T04:17:18;9.40;87.20
2130;DHT22;1071;52.544;13.374;2023-04-28T04:19:45;9.40;87.30
2130;DHT22;1071;52.544;13.374;2023-04-28T04:22:12;9.50;87.40
2130;DHT22;1071;52.544;13.374;2023-04-28T04:24:50;9.50;87.20
2130;DHT22;1071;52.544;13.374;2023-04-28T04:27:17;9.50;87.30
2130;DHT22;1071;52.544;13.374;2023-04-28T04:29:44;9.50;87.40
2130;DHT22;1071;52.544;13.374;2023-04-28T04:32:15;9.50;87.40
2130;DHT22;1071;52.544;13.374;2023-04-28T04:34:44;9.60;88.20
2130;DHT22;1071;52.544;13.374;2023-04-28T04:37:32;9.60;87.30
2130;DHT22;1071;52.544;13.374;2023-04-28T04:40:00;9.60;87.40
2130;DHT22;1071;52.544;13.374;2023-04-28T04:42:28;9.60;86.90
2130;DHT22;1071;52.544;13.374;2023-04-28T04:44:55;9.60;87.00
2130;DHT22;1071;52.544;13.374;2023-04-28T04:47:24;9.70;87.20
2130;DHT22;1071;52.544;13.374;2023-04-28T04:49:53;9.70;87.00
2130;DHT22;1071;52.544;13.374;2023-04-28T04:52:20;9.70;87.00
2130;DHT22;1071;52.544;13.374;2023-04-28T04:54:50;9.60;86.90
2130;DHT22;1071;52.544;13.374;2023-04-28T04:57:17;9.60;87.00
2130;DHT22;1071;52.544;13.374;2023-04-28T04:59:44;9.60;87.20
2130;DHT22;1071;52.544;13.374;2023-04-28T05:02:11;9.70;87.50
2130;DHT22;1071;52.544;13.374;2023-04-28T05:04:39;9.70;87.30
2130;DHT22;1071;52.544;13.374;2023-04-28T05:07:06;9.70;87.30
2130;DHT22;1071;52.544;13.374;2023-04-28T05:09:33;9.70;87.50
2130;DHT22;1071;52.544;13.374;2023-04-28T05:12:00;9.70;87.30
2130;DHT22;1071;52.544;13.374;2023-04-28T05:14:27;9.80;87.20
2130;DHT22;1071;52.544;13.374;2023-04-28T05:16:54;9.80;87.20
2130;DHT22;1071;52.544;13.374;2023-04-28T05:19:23;9.90;87.20
2130;DHT22;1071;52.544;13.374;2023-04-28T05:21:52;10.00;85.90
2130;DHT22;1071;52.544;13.374;2023-04-28T05:24:20;10.00;86.00
2130;DHT22;1071;52.544;13.374;2023-04-28T05:26:51;10.10;85.90
2130;DHT22;1071;52.544;13.374;2023-04-28T05:29:18;10.10;85.00
2130;DHT22;1071;52.544;13.374;2023-04-28T05:31:46;10.10;85.30
2130;DHT22;1071;52.544;13.374;2023-04-28T05:34:13;10.20;84.60
2130;DHT22;1071;52.544;13.374;2023-04-28T05:36:40;10.20;85.10
2130;DHT22;1071;52.544;13.374;2023-04-28T05:39:09;10.30;85.00
2130;DHT22;1071;52.544;13.374;2023-04-28T05:41:36;10.30;84.70
2130;DHT22;1071;52.544;13.374;2023-04-28T05:44:04;10.40;84.70
2130;DHT22;1071;52.544;13.374;2023-04-28T05:46:31;10.40;83.80
2130;DHT22;1071;52.544;13.374;2023-04-28T05:48:58;10.40;84.10
2130;DHT22;1071;52.544;13.374;2023-04-28T05:51:26;10.50;83.90
2130;DHT22;1071;52.544;13.374;2023-04-28T05:53:53;10.50;83.90
2130;DHT22;1071;52.544;13.374;2023-04-28T05:56:21;10.60;83.70
2130;DHT22;1071;52.544;13.374;2023-04-28T05:58:49;10.70;84.30
2130;DHT22;1071;52.544;13.374;2023-04-28T06:01:16;10.80;83.20
2130;DHT22;1071;52.544;13.374;2023-04-28T06:03:43;10.80;82.50
2130;DHT22;1071;52.544;13.374;2023-04-28T06:06:11;10.90;82.60
2130;DHT22;1071;52.544;13.374;2023-04-28T06:08:38;10.90;82.50
2130;DHT22;1071;52.544;13.374;2023-04-28T06:11:05;11.00;81.80
2130;DHT22;1071;52.544;13.374;2023-04-28T06:13:36;11.10;81.40
2130;DHT22;1071;52.544;13.374;2023-04-28T06:16:04;11.10;80.60
2130;DHT22;1071;52.544;13.374;2023-04-28T06:18:34;11.10;80.70
2130;DHT22;1071;52.544;13.374;2023-04-28T06:21:01;11.20;80.80
2130;DHT22;1071;52.544;13.374;2023-04-28T06:23:29;11.20;80.10
2130;DHT22;1071;52.544;13.374;2023-04-28T06:25:56;11.30;80.40
2130;DHT22;1071;52.544;13.374;2023-04-28T06:28:23;11.40;80.20
2130;DHT22;1071;52.544;13.374;2023-04-28T06:30:51;11.40;79.70
2130;DHT22;1071;52.544;13.374;2023-04-28T06:33:18;11.50;79.30
2130;DHT22;1071;52.544;13.374;2023-04-28T06:35:46;11.50;78.60
2130;DHT22;1071;52.544;13.374;2023-04-28T06:38:22;11.60;78.90
2130;DHT22;1071;52.544;13.374;2023-04-28T06:40:49;11.70;78.80
2130;DHT22;1071;52.544;13.374;2023-04-28T06:43:16;11.80;78.20
2130;DHT22;1071;52.544;13.374;2023-04-28T06:45:47;11.90;77.70
2130;DHT22;1071;52.544;13.374;2023-04-28T06:48:15;12.00;77.80
2130;DHT22;1071;52.544;13.374;2023-04-28T06:50:42;12.20;77.40
2130;DHT22;1071;52.544;13.374;2023-04-28T06:53:12;12.30;76.60
2130;DHT22;1071;52.544;13.374;2023-04-28T06:55:41;12.30;75.60
2130;DHT22;1071;52.544;13.374;2023-04-28T06:58:08;12.30;75.40
2130;DHT22;1071;52.544;13.374;2023-04-28T07:00:36;12.20;74.40
2130;DHT22;1071;52.544;13.374;2023-04-28T07:03:11;12.40;74.90
2130;DHT22;1071;52.544;13.374;2023-04-28T07:05:39;12.40;74.70
2130;DHT22;1071;52.544;13.374;2023-04-28T07:08:06;12.40;74.40
2130;DHT22;1071;52.544;13.374;2023-04-28T07:10:33;12.50;74.50
2130;DHT22;1071;52.544;13.374;2023-04-28T07:13:00;12.60;74.40
2130;DHT22;1071;52.544;13.374;2023-04-28T07:15:28;12.70;73.80
2130;DHT22;1071;52.544;13.374;2023-04-28T07:17:56;12.70;73.00
2130;DHT22;1071;52.544;13.374;2023-04-28T07:20:23;12.80;72.60
2130;DHT22;1071;52.544;13.374;2023-04-28T07:22:52;12.80;72.60
2130;DHT22;1071;52.544;13.374;2023-04-28T07:25:21;12.90;72.70
2130;DHT22;1071;52.544;13.374;2023-04-28T07:27:51;13.10;72.30
2130;DHT22;1071;52.544;13.374;2023-04-28T07:30:18;13.10;72.20
2130;DHT22;1071;52.544;13.374;2023-04-28T07:32:46;13.30;72.10
2130;DHT22;1071;52.544;13.374;2023-04-28T07:35:14;13.40;71.30
2130;DHT22;1071;52.544;13.374;2023-04-28T07:37:41;13.50;71.30
2130;DHT22;1071;52.544;13.374;2023-04-28T07:40:10;13.60;70.50
2130;DHT22;1071;52.544;13.374;2023-04-28T07:42:38;13.70;69.70
2130;DHT22;1071;52.544;13.374;2023-04-28T07:45:06;13.80;69.20
2130;DHT22;1071;52.544;13.374;2023-04-28T07:47:34;13.80;67.90
2130;DHT22;1071;52.544;13.374;2023-04-28T07:50:02;13.80;68.00
2130;DHT22;1071;52.544;13.374;2023-04-28T07:52:31;13.80;67.50
2130;DHT22;1071;52.544;13.374;2023-04-28T07:54:58;13.90;67.70
2130;DHT22;1071;52.544;13.374;2023-04-28T07:57:26;13.90;67.30
2130;DHT22;1071;52.544;13.374;2023-04-28T07:59:56;14.00;67.20
2130;DHT22;1071;52.544;13.374;2023-04-28T08:02:23;14.00;67.50
2130;DHT22;1071;52.544;13.374;2023-04-28T08:04:51;14.20;67.50
2130;DHT22;1071;52.544;13.374;2023-04-28T08:07:19;14.30;67.50
2130;DHT22;1071;52.544;13.374;2023-04-28T08:09:46;14.30;67.00
2130;DHT22;1071;52.544;13.374;2023-04-28T08:12:14;14.40;67.40
2130;DHT22;1071;52.544;13.374;2023-04-28T08:14:42;14.50;66.80
2130;DHT22;1071;52.544;13.374;2023-04-28T08:17:09;14.50;66.40
2130;DHT22;1071;52.544;13.374;2023-04-28T08:19:36;14.50;65.50
2130;DHT22;1071;52.544;13.374;2023-04-28T08:22:03;14.40;66.10
2130;DHT22;1071;52.544;13.374;2023-04-28T08:24:31;14.40;66.50
2130;DHT22;1071;52.544;13.374;2023-04-28T08:27:04;14.50;66.50
2130;DHT22;1071;52.544;13.374;2023-04-28T08:29:32;14.60;66.90
2130;DHT22;1071;52.544;13.374;2023-04-28T08:32:00;14.70;66.70
2130;DHT22;1071;52.544;13.374;2023-04-28T08:34:27;14.80;66.60
2130;DHT22;1071;52.544;13.374;2023-04-28T08:36:56;14.80;66.20
2130;DHT22;1071;52.544;13.374;2023-04-28T08:39:23;14.90;66.10
2130;DHT22;1071;52.544;13.374;2023-04-28T09:33:03;15.60;63.00
2130;DHT22;1071;52.544;13.374;2023-04-28T09:35:40;15.80;63.90
2130;DHT22;1071;52.544;13.374;2023-04-28T09:38:07;15.90;63.80
2130;DHT22;1071;52.544;13.374;2023-04-28T09:40:48;15.90;63.40
2130;DHT22;1071;52.544;13.374;2023-04-28T09:43:26;16.00;63.00
2130;DHT22;1071;52.544;13.374;2023-04-28T09:45:56;16.00;62.60
2130;DHT22;1071;52.544;13.374;2023-04-28T09:48:29;16.10;62.50
2130;DHT22;1071;52.544;13.374;2023-04-28T09:50:57;16.10;63.00
2130;DHT22;1071;52.544;13.374;2023-04-28T09:53:25;16.20;62.30
2130;DHT22;1071;52.544;13.374;2023-04-28T09:55:54;16.20;62.50
2130;DHT22;1071;52.544;13.374;2023-04-28T09:58:22;16.20;62.40
2130;DHT22;1071;52.544;13.374;2023-04-28T10:00:51;16.20;62.70
2130;DHT22;1071;52.544;13.374;2023-04-28T10:03:21;16.20;62.00
2130;DHT22;1071;52.544;13.374;2023-04-28T10:05:51;16.20;62.50
2130;DHT22;1071;52.544;13.374;2023-04-28T10:08:19;16.20;62.30
2130;DHT22;1071;52.544;13.374;2023-04-28T10:10:48;16.30;62.60
2130;DHT22;1071;52.544;13.374;2023-04-28T10:13:16;16.30;62.70
2130;DHT22;1071;52.544;13.374;2023-04-28T10:15:44;16.40;62.90
2130;DHT22;1071;52.544;13.374;2023-04-28T10:18:12;16.50;63.10
2130;DHT22;1071;52.544;13.374;2023-04-28T10:20:41;16.60;63.40
2130;DHT22;1071;52.544;13.374;2023-04-28T10:23:30;16.70;63.10
2130;DHT22;1071;52.544;13.374;2023-04-28T10:26:02;16.60;62.70
2130;DHT22;1071;52.544;13.374;2023-04-28T10:28:46;16.70;62.70
2130;DHT22;1071;52.544;13.374;2023-04-28T10:31:14;16.80;63.20
2130;DHT22;1071;52.544;13.374;2023-04-28T10:33:45;16.80;62.70
2130;DHT22;1071;52.544;13.374;2023-04-28T10:36:45;16.90;63.20
2130;DHT22;1071;52.544;13.374;2023-04-28T10:39:15;16.80;63.00
2130;DHT22;1071;52.544;13.374;2023-04-28T10:41:45;16.80;63.20
2130;DHT22;1071;52.544;13.374;2023-04-28T10:44:40;16.80;63.90
2130;DHT22;1071;52.544;13.374;2023-04-28T10:47:09;16.80;63.10
2130;DHT22;1071;52.544;13.374;2023-04-28T10:50:08;16.80;62.20
2130;DHT22;1071;52.544;13.374;2023-04-28T10:52:48;16.80;62.80
2130;DHT22;1071;52.544;13.374;2023-04-28T10:55:32;16.90;63.40
2130;DHT22;1071;52.544;13.374;2023-04-28T10:58:30;17.00;64.00
2130;DHT22;1071;52.544;13.374;2023-04-28T11:01:29;17.10;64.00
2130;DHT22;1071;52.544;13.374;2023-04-28T11:03:58;17.10;63.50
2130;DHT22;1071;52.544;13.374;2023-04-28T11:06:29;17.10;63.30
2130;DHT22;1071;52.544;13.374;2023-04-28T11:09:00;17.20;63.40
2130;DHT22;1071;52.544;13.374;2023-04-28T11:11:33;17.20;62.80
2130;DHT22;1071;52.544;13.374;2023-04-28T11:14:32;17.30;62.90
2130;DHT22;1071;52.544;13.374;2023-04-28T11:17:06;17.40;62.80
2130;DHT22;1071;52.544;13.374;2023-04-28T11:19:34;17.40;62.50
2130;DHT22;1071;52.544;13.374;2023-04-28T11:22:05;17.50;62.70
2130;DHT22;1071;52.544;13.374;2023-04-28T11:24:36;17.50;62.20
2130;DHT22;1071;52.544;13.374;2023-04-28T11:27:05;17.50;61.90
2130;DHT22;1071;52.544;13.374;2023-04-28T11:29:34;17.60;61.80
2130;DHT22;1071;52.544;13.374;2023-04-28T11:32:02;17.60;61.90
2130;DHT22;1071;52.544;13.374;2023-04-28T11:34:29;17.70;61.60
2130;DHT22;1071;52.544;13.374;2023-04-28T11:36:56;17.70;61.50
2130;DHT22;1071;52.544;13.374;2023-04-28T11:39:27;17.80;61.70
2130;DHT22;1071;52.544;13.374;2023-04-28T11:41:58;17.80;61.20
2130;DHT22;1071;52.544;13.374;2023-04-28T11:44:29;17.90;61.60
2130;DHT22;1071;52.544;13.374;2023-04-28T11:46:58;17.90;61.50
2130;DHT22;1071;52.544;13.374;2023-04-28T11:49:26;17.90;61.30
2130;DHT22;1071;52.544;13.374;2023-04-28T11:51:55;17.90;60.40
2130;DHT22;1071;52.544;13.374;2023-04-28T11:54:25;17.90;60.90
2130;DHT22;1071;52.544;13.374;2023-04-28T11:56:54;17.90;60.70
2130;DHT22;1071;52.544;13.374;2023-04-28T11:59:26;17.90;60.70
2130;DHT22;1071;52.544;13.374;2023-04-28T12:01:55;17.90;60.30
2130;DHT22;1071;52.544;13.374;2023-04-28T12:04:27;17.90;60.70
2130;DHT22;1071;52.544;13.374;2023-04-28T12:07:01;17.90;60.50
2130;DHT22;1071;52.544;13.374;2023-04-28T12:09:29;17.80;60.20
2130;DHT22;1071;52.544;13.374;2023-04-28T12:11:58;17.80;60.60
2130;DHT22;1071;52.544;13.374;2023-04-28T12:14:26;17.90;60.70
2130;DHT22;1071;52.544;13.374;2023-04-28T12:16:56;17.80;60.70
2130;DHT22;1071;52.544;13.374;2023-04-28T12:19:23;17.80;60.60
2130;DHT22;1071;52.544;13.374;2023-04-28T12:22:03;17.90;60.80
2130;DHT22;1071;52.544;13.374;2023-04-28T12:24:32;18.00;61.00
2130;DHT22;1071;52.544;13.374;2023-04-28T12:27:14;18.00;61.20
2130;DHT22;1071;52.544;13.374;2023-04-28T12:29:54;18.00;61.00
2130;DHT22;1071;52.544;13.374;2023-04-28T12:32:39;18.00;61.30
2130;DHT22;1071;52.544;13.374;2023-04-28T12:35:08;18.00;61.60
2130;DHT22;1071;52.544;13.374;2023-04-28T12:37:45;18.00;61.50
2130;DHT22;1071;52.544;13.374;2023-04-28T12:40:12;18.00;61.40
2130;DHT22;1071;52.544;13.374;2023-04-28T12:42:39;18.00;61.50
2130;DHT22;1071;52.544;13.374;2023-04-28T12:45:07;18.00;61.80
2130;DHT22;1071;52.544;13.374;2023-04-28T12:47:35;18.00;62.30
2130;DHT22;1071;52.544;13.374;2023-04-28T12:50:05;18.00;62.50
2130;DHT22;1071;52.544;13.374;2023-04-28T12:52:34;18.00;62.30
2130;DHT22;1071;52.544;13.374;2023-04-28T12:55:02;18.00;62.40
2130;DHT22;1071;52.544;13.374;2023-04-28T12:57:29;18.10;62.70
2130;DHT22;1071;52.544;13.374;2023-04-28T12:59:56;18.10;62.30
2130;DHT22;1071;52.544;13.374;2023-04-28T13:02:25;18.10;62.20
2130;DHT22;1071;52.544;13.374;2023-04-28T13:04:52;18.10;62.70
2130;DHT22;1071;52.544;13.374;2023-04-28T13:07:21;18.00;62.50
2130;DHT22;1071;52.544;13.374;2023-04-28T13:09:48;18.00;62.50
2130;DHT22;1071;52.544;13.374;2023-04-28T13:12:15;18.10;62.50
2130;DHT22;1071;52.544;13.374;2023-04-28T13:14:42;18.10;62.60
2130;DHT22;1071;52.544;13.374;2023-04-28T13:17:11;18.20;62.80
2130;DHT22;1071;52.544;13.374;2023-04-28T13:19:39;18.30;62.30
2130;DHT22;1071;52.544;13.374;2023-04-28T13:22:15;18.30;62.60
2130;DHT22;1071;52.544;13.374;2023-04-28T13:24:43;18.30;62.40
2130;DHT22;1071;52.544;13.374;2023-04-28T13:27:10;18.30;62.60
2130;DHT22;1071;52.544;13.374;2023-04-28T13:29:37;18.40;62.80
2130;DHT22;1071;52.544;13.374;2023-04-28T13:32:05;18.30;62.30
2130;DHT22;1071;52.544;13.374;2023-04-28T13:34:33;18.30;62.30
2130;DHT22;1071;52.544;13.374;2023-04-28T13:37:02;18.30;62.60
2130;DHT22;1071;52.544;13.374;2023-04-28T13:39:29;18.30;62.60
2130;DHT22;1071;52.544;13.374;2023-04-28T13:41:58;18.20;63.00
2130;DHT22;1071;52.544;13.374;2023-04-28T13:44:26;18.20;63.20
2130;DHT22;1071;52.544;13.374;2023-04-28T13:46:53;18.20;63.40
2130;DHT22;1071;52.544;13.374;2023-04-28T13:49:20;18.20;63.60
2130;DHT22;1071;52.544;13.374;2023-04-28T13:51:48;18.20;63.70
2130;DHT22;1071;52.544;13.374;2023-04-28T13:54:15;18.30;64.50
2130;DHT22;1071;52.544;13.374;2023-04-28T13:56:42;18.30;64.70
2130;DHT22;1071;52.544;13.374;2023-04-28T13:59:12;18.40;65.10
2130;DHT22;1071;52.544;13.374;2023-04-28T14:01:41;18.40;65.60
2130;DHT22;1071;52.544;13.374;2023-04-28T14:04:10;18.40;66.90
2130;DHT22;1071;52.544;13.374;2023-04-28T14:06:37;18.40;67.90
2130;DHT22;1071;52.544;13.374;2023-04-28T14:09:04;18.40;69.10
2130;DHT22;1071;52.544;13.374;2023-04-28T14:11:31;18.30;70.30
2130;DHT22;1071;52.544;13.374;2023-04-28T14:13:58;18.20;71.00
2130;DHT22;1071;52.544;13.374;2023-04-28T14:16:27;18.20;71.90
2130;DHT22;1071;52.544;13.374;2023-04-28T14:18:54;18.10;72.30
2130;DHT22;1071;52.544;13.374;2023-04-28T14:21:22;18.00;72.20
2130;DHT22;1071;52.544;13.374;2023-04-28T14:23:50;17.90;72.30
2130;DHT22;1071;52.544;13.374;2023-04-28T14:26:17;17.90;72.40
2130;DHT22;1071;52.544;13.374;2023-04-28T14:28:44;17.70;72.20
2130;DHT22;1071;52.544;13.374;2023-04-28T14:31:17;17.70;72.70
2130;DHT22;1071;52.544;13.374;2023-04-28T14:33:47;17.70;73.60
2130;DHT22;1071;52.544;13.374;2023-04-28T14:36:14;17.60;74.10
2130;DHT22;1071;52.544;13.374;2023-04-28T14:38:44;17.60;74.50
2130;DHT22;1071;52.544;13.374;2023-04-28T14:41:12;17.60;75.80
2130;DHT22;1071;52.544;13.374;2023-04-28T14:43:40;17.60;75.90
2130;DHT22;1071;52.544;13.374;2023-04-28T14:46:07;17.60;75.00
2130;DHT22;1071;52.544;13.374;2023-04-28T14:48:35;17.50;74.10
2130;DHT22;1071;52.544;13.374;2023-04-28T14:51:03;17.40;74.00
2130;DHT22;1071;52.544;13.374;2023-04-28T14:53:30;17.40;74.00
2130;DHT22;1071;52.544;13.374;2023-04-28T14:56:00;17.40;74.00
2130;DHT22;1071;52.544;13.374;2023-04-28T14:58:29;17.40;74.10
2130;DHT22;1071;52.544;13.374;2023-04-28T15:00:56;17.40;74.80
2130;DHT22;1071;52.544;13.374;2023-04-28T15:03:24;17.40;75.10
2130;DHT22;1071;52.544;13.374;2023-04-28T15:05:52;17.40;75.40
2130;DHT22;1071;52.544;13.374;2023-04-28T15:08:26;17.50;74.90
2130;DHT22;1071;52.544;13.374;2023-04-28T15:10:55;17.40;74.40
2130;DHT22;1071;52.544;13.374;2023-04-28T15:13:25;17.50;74.60
2130;DHT22;1071;52.544;13.374;2023-04-28T15:15:53;17.40;74.60
2130;DHT22;1071;52.544;13.374;2023-04-28T15:18:20;17.40;74.60
2130;DHT22;1071;52.544;13.374;2023-04-28T15:20:47;17.40;75.10
2130;DHT22;1071;52.544;13.374;2023-04-28T15:23:14;17.40;75.20
2130;DHT22;1071;52.544;13.374;2023-04-28T15:25:46;17.40;75.30
2130;DHT22;1071;52.544;13.374;2023-04-28T15:28:18;17.40;75.20
2130;DHT22;1071;52.544;13.374;2023-04-28T15:30:48;17.40;75.40
2130;DHT22;1071;52.544;13.374;2023-04-28T15:33:16;17.50;75.50
2130;DHT22;1071;52.544;13.374;2023-04-28T15:35:43;17.50;75.60
2130;DHT22;1071;52.544;13.374;2023-04-28T15:38:10;17.50;75.90
2130;DHT22;1071;52.544;13.374;2023-04-28T15:40:43;17.50;76.90
2130;DHT22;1071;52.544;13.374;2023-04-28T15:43:19;17.50;78.30
2130;DHT22;1071;52.544;13.374;2023-04-28T15:45:46;17.50;79.00
2130;DHT22;1071;52.544;13.374;2023-04-28T15:48:13;17.40;78.70
2130;DHT22;1071;52.544;13.374;2023-04-28T15:50:41;17.40;78.40
2130;DHT22;1071;52.544;13.374;2023-04-28T15:53:09;17.30;78.40
2130;DHT22;1071;52.544;13.374;2023-04-28T15:55:36;17.30;78.80
2130;DHT22;1071;52.544;13.374;2023-04-28T15:58:05;17.30;79.40
2130;DHT22;1071;52.544;13.374;2023-04-28T16:00:39;17.30;79.60
2130;DHT22;1071;52.544;13.374;2023-04-28T16:03:07;17.30;80.30
2130;DHT22;1071;52.544;13.374;2023-04-28T16:05:36;17.30;80.30
2130;DHT22;1071;52.544;13.374;2023-04-28T16:08:03;17.30;81.00
2130;DHT22;1071;52.544;13.374;2023-04-28T16:10:31;17.30;81.70
2130;DHT22;1071;52.544;13.374;2023-04-28T16:12:59;17.30;83.10
2130;DHT22;1071;52.544;13.374;2023-04-28T16:15:26;17.30;84.60
2130;DHT22;1071;52.544;13.374;2023-04-28T16:17:54;17.30;85.50
2130;DHT22;1071;52.544;13.374;2023-04-28T16:20:22;17.20;86.60
2130;DHT22;1071;52.544;13.374;2023-04-28T16:22:52;17.20;87.40
2130;DHT22;1071;52.544;13.374;2023-04-28T16:25:19;17.10;88.50
2130;DHT22;1071;52.544;13.374;2023-04-28T16:27:46;17.10;88.90
2130;DHT22;1071;52.544;13.374;2023-04-28T16:30:14;17.10;89.70
2130;DHT22;1071;52.544;13.374;2023-04-28T16:32:42;17.00;89.30
2130;DHT22;1071;52.544;13.374;2023-04-28T16:35:11;17.00;89.30
2130;DHT22;1071;52.544;13.374;2023-04-28T16:37:38;17.00;89.20
2130;DHT22;1071;52.544;13.374;2023-04-28T16:40:09;16.90;88.90
2130;DHT22;1071;52.544;13.374;2023-04-28T16:42:39;16.80;88.80
2130;DHT22;1071;52.544;13.374;2023-04-28T16:45:09;16.80;89.10
2130;DHT22;1071;52.544;13.374;2023-04-28T16:47:40;16.80;89.40
2130;DHT22;1071;52.544;13.374;2023-04-28T16:50:10;16.70;90.10
2130;DHT22;1071;52.544;13.374;2023-04-28T16:52:39;16.70;90.10
2130;DHT22;1071;52.544;13.374;2023-04-28T16:55:07;16.70;90.30